D/T METAR WX W/DIR W/SPE G/SPE TEMP DEWP
16/01/19 02:50 EGPK 160250Z 22016KT 9999 BKN040 09/07 Q0998 SW (220°) 18.4mph 9°C 7°C
16/01/19 01:50 EGPK 160150Z 22014KT 9999 FEW015 BKN045 09/07 Q0999 SW (220°) 16.1mph 9°C 7°C
16/01/19 00:50 EGPK 160050Z 21013G23KT 9999 FEW015 BKN045 09/07 Q1000 SSW (210°) 15.0mph 26.5mph 9°C 7°C
15/01/19 23:50 EGPK 152350Z 21016KT 9999 FEW018 SCT047 09/06 Q1000 SSW (210°) 18.4mph 9°C 6°C
15/01/19 22:50 EGPK 152250Z 21013KT 9999 FEW015 SCT045 09/07 Q1002 SSW (210°) 15.0mph 9°C 7°C
15/01/19 22:20 EGPK 152220Z 21011KT 9999 FEW015 SCT045 09/07 Q1002 SSW (210°) 12.7mph 9°C 7°C
15/01/19 21:50 EGPK 152150Z 21012KT 9999 FEW015 SCT045 09/07 Q1002 SSW (210°) 13.8mph 9°C 7°C
15/01/19 21:20 EGPK 152120Z 20009KT 9999 SCT020 SCT045 09/07 Q1003 SSW (200°) 10.4mph 9°C 7°C
15/01/19 20:50 EGPK 152050Z 20011KT 9999 SCT020 SCT045 09/07 Q1004 SSW (200°) 12.7mph 9°C 7°C
15/01/19 20:20 EGPK 152020Z 20011KT 9999 SCT025 SCT045 09/07 Q1004 SSW (200°) 12.7mph 9°C 7°C
15/01/19 19:20 EGPK 151920Z 19008KT 9999 FEW011 BKN045 09/07 Q1005 S (190°) 9.2mph 9°C 7°C
15/01/19 18:50 EGPK 151850Z 20012KT 9999 VCSH FEW011 BKN048 09/07 Q1005 VCSH SSW (200°) 13.8mph 9°C 7°C
15/01/19 18:20 EGPK 151820Z 20014KT 9999 VCSH FEW010 SCT016 BKN025 09/07 Q1006 VCSH SSW (200°) 16.1mph 9°C 7°C
15/01/19 17:20 EGPK 151720Z 21011G21KT 9999 -SHRA FEW010 SCT016 BKN025 09/07 Q1007 -SHRA SSW (210°) 12.7mph 24.2mph 9°C 7°C
15/01/19 16:50 EGPK 151650Z 21012KT 9999 VCSH FEW012 SCT018 BKN030 09/07 Q1007 VCSH SSW (210°) 13.8mph 9°C 7°C
15/01/19 16:20 EGPK 151620Z 21012KT 9999 VCSH FEW014 SCT024 BKN034 09/07 Q1007 VCSH SSW (210°) 13.8mph 9°C 7°C
15/01/19 15:50 EGPK 151550Z 22012KT 9999 VCSH FEW012 BKN024 09/07 Q1008 VCSH SW (220°) 13.8mph 9°C 7°C
15/01/19 15:20 EGPK 151520Z 23015KT 8000 -RA FEW012 BKN023 09/07 Q1008 -RA SW (230°) 17.3mph 9°C 7°C
15/01/19 14:50 EGPK 151450Z 22019KT 9999 -RA FEW012 BKN023 10/06 Q1009 -RA SW (220°) 21.9mph 10°C 6°C
15/01/19 14:20 EGPK 151420Z 22014KT 9999 FEW014 BKN025 10/06 Q1009 SW (220°) 16.1mph 10°C 6°C
15/01/19 13:50 EGPK 151350Z 22012KT 9999 FEW014 SCT025 10/07 Q1009 SW (220°) 13.8mph 10°C 7°C
15/01/19 12:50 EGPK 151250Z 22013KT 9999 FEW012 SCT028 BKN038 10/07 Q1010 SW (220°) 15.0mph 10°C 7°C
15/01/19 12:20 EGPK 151220Z 22014KT 9999 FEW015 SCT022 BKN040 10/07 Q1011 SW (220°) 16.1mph 10°C 7°C
15/01/19 11:20 EGPK 151120Z 22012KT 9999 FEW015 SCT022 BKN040 09/07 Q1011 SW (220°) 13.8mph 9°C 7°C
15/01/19 10:20 EGPK 151020Z 22011KT 9999 FEW012 BKN018 09/07 Q1012 SW (220°) 12.7mph 9°C 7°C
15/01/19 09:50 EGPK 150950Z 22013KT 9999 FEW012 SCT018 09/07 Q1012 SW (220°) 15.0mph 9°C 7°C
15/01/19 09:20 EGPK 150920Z 23013KT 9999 FEW015 SCT018 09/07 Q1012 SW (230°) 15.0mph 9°C 7°C
15/01/19 08:50 EGPK 150850Z 23012KT 9999 FEW015 SCT022 09/07 Q1013 SW (230°) 13.8mph 9°C 7°C
15/01/19 08:20 EGPK 150820Z 23014KT 9999 FEW015 SCT022 10/08 Q1012 SW (230°) 16.1mph 10°C 8°C
15/01/19 07:50 EGPK 150750Z 23014KT 9999 FEW015 SCT020 09/08 Q1012 SW (230°) 16.1mph 9°C 8°C
15/01/19 07:20 EGPK 150720Z 23013KT 9999 SCT015 BKN022 09/08 Q1012 SW (230°) 15.0mph 9°C 8°C
15/01/19 06:50 EGPK 150650Z 23013KT 9999 BKN018 10/08 Q1012 SW (230°) 15.0mph 10°C 8°C
15/01/19 06:20 EGPK 150620Z 23015KT 9999 BKN018 09/08 Q1012 SW (230°) 17.3mph 9°C 8°C
15/01/19 05:50 EGPK 150550Z 24015KT 9000 -RA BKN015 09/08 Q1012 -RA WSW (240°) 17.3mph 9°C 8°C
15/01/19 04:50 EGPK 150450Z 23017KT 9000 SCT010 BKN018 10/08 Q1013 SW (230°) 19.6mph 10°C 8°C
15/01/19 03:50 EGPK 150350Z 23016KT 9999 SCT016 BKN028 09/08 Q1013 SW (230°) 18.4mph 9°C 8°C
15/01/19 02:50 EGPK 150250Z 23019KT 9999 SCT015 BKN025 09/07 Q1014 SW (230°) 21.9mph 9°C 7°C
15/01/19 01:50 EGPK 150150Z 23015KT 9999 SCT015 BKN025 09/07 Q1015 SW (230°) 17.3mph 9°C 7°C
15/01/19 00:50 EGPK 150050Z 22010KT 9999 FEW007 SCT017 BKN020 09/07 Q1015 SW (220°) 11.5mph 9°C 7°C
14/01/19 23:50 EGPK 142350Z 23013KT 9999 SCT012 BKN018 09/08 Q1016 SW (230°) 15.0mph 9°C 8°C
14/01/19 23:20 EGPK 142320Z 22015KT 9999 SCT015 BKN020 09/08 Q1016 SW (220°) 17.3mph 9°C 8°C
14/01/19 22:50 EGPK 142250Z 23015KT 8000 -RA SCT011 BKN020 09/08 Q1016 -RA SW (230°) 17.3mph 9°C 8°C
14/01/19 22:20 EGPK 142220Z 23014KT 8000 -RA SCT011 BKN020 08/08 Q1016 -RA SW (230°) 16.1mph 8°C 8°C
14/01/19 21:50 EGPK 142150Z 23016KT 6000 -RA SCT011 BKN014 08/08 Q1016 -RA SW (230°) 18.4mph 8°C 8°C
14/01/19 21:20 EGPK 142120Z 23016KT 6000 -DZ SCT006 BKN010 08/07 Q1016 -DZ SW (230°) 18.4mph 8°C 7°C
14/01/19 20:50 EGPK 142050Z 23013KT 7000 FEW006 SCT014 BKN025 08/07 Q1017 SW (230°) 15.0mph 8°C 7°C
14/01/19 20:20 EGPK 142020Z 23013KT 7000 -RA SCT014 BKN025 08/07 Q1017 -RA SW (230°) 15.0mph 8°C 7°C
14/01/19 19:50 EGPK 141950Z 23014KT 9999 -RA SCT012 BKN023 08/07 Q1017 -RA SW (230°) 16.1mph 8°C 7°C
14/01/19 19:20 EGPK 141920Z 23014KT 9999 SCT012 BKN023 08/06 Q1017 SW (230°) 16.1mph 8°C 6°C
14/01/19 18:50 EGPK 141850Z 24011KT 9999 SCT012 BKN023 08/06 Q1018 WSW (240°) 12.7mph 8°C 6°C
14/01/19 18:20 EGPK 141820Z 24011KT 9999 SCT012 BKN024 08/06 Q1018 WSW (240°) 12.7mph 8°C 6°C
14/01/19 17:50 EGPK 141750Z 24011KT 9999 SCT012 BKN024 08/06 Q1018 WSW (240°) 12.7mph 8°C 6°C
14/01/19 17:20 EGPK 141720Z 26011KT 9999 SCT012 BKN024 08/06 Q1018 W (260°) 12.7mph 8°C 6°C
14/01/19 16:50 EGPK 141650Z 25010KT 9999 VCSH SCT012 BKN024 08/07 Q1018 VCSH WSW (250°) 11.5mph 8°C 7°C
14/01/19 16:20 EGPK 141620Z 24007KT 8000 -RA SCT012 BKN024 07/06 Q1019 -RA WSW (240°) 8.1mph 7°C 6°C
14/01/19 15:20 EGPK 141520Z 26007KT 9999 -RA FEW012 SCT027 BKN031 08/06 Q1019 -RA W (260°) 8.1mph 8°C 6°C
14/01/19 14:50 EGPK 141450Z 27010KT 9999 VCSH FEW012 SCT014 BKN025 08/05 Q1019 VCSH W (270°) 11.5mph 8°C 5°C
14/01/19 14:20 EGPK 141420Z 24006KT 9999 VCSH FEW015 SCT026 BKN032 08/05 Q1019 VCSH WSW (240°) 6.9mph 8°C 5°C
14/01/19 13:50 EGPK 141350Z 25007KT 9999 VCSH FEW015 SCT026 BKN032 08/05 Q1019 VCSH WSW (250°) 8.1mph 8°C 5°C
14/01/19 13:20 EGPK 141320Z 25008KT 9999 VCSH FEW014 SCT024 BKN028 08/05 Q1020 VCSH WSW (250°) 9.2mph 8°C 5°C
14/01/19 12:50 EGPK 141250Z 27009KT 9999 -RA FEW014 SCT024 BKN028 08/05 Q1020 -RA W (270°) 10.4mph 8°C 5°C
14/01/19 12:20 EGPK 141220Z 28008KT 9999 FEW016 SCT026 BKN030 08/05 Q1020 W (280°) 9.2mph 8°C 5°C
14/01/19 11:50 EGPK 141150Z 28010KT 9999 FEW016 SCT026 BKN030 08/05 Q1020 W (280°) 11.5mph 8°C 5°C
14/01/19 10:50 EGPK 141050Z 31009KT 9999 VCSH FEW016 SCT026 07/06 Q1020 VCSH NW (310°) 10.4mph 7°C 6°C
14/01/19 10:20 EGPK 141020Z 27010KT 9999 FEW016 SCT026 08/05 Q1020 W (270°) 11.5mph 8°C 5°C
14/01/19 09:50 EGPK 140950Z 29008KT 9999 FEW015 SCT027 07/05 Q1020 WNW (290°) 9.2mph 7°C 5°C
14/01/19 09:20 EGPK 140920Z 29008KT 9999 FEW015 SCT027 08/05 Q1019 WNW (290°) 9.2mph 8°C 5°C
14/01/19 08:50 EGPK 140850Z 29008KT 9999 FEW015 SCT027 07/05 Q1019 WNW (290°) 9.2mph 7°C 5°C
14/01/19 08:20 EGPK 140820Z 30009KT 9999 FEW015 SCT030 07/05 Q1019 WNW (300°) 10.4mph 7°C 5°C
14/01/19 07:50 EGPK 140750Z 30008KT 9999 -RA FEW013 SCT028 06/04 Q1019 -RA WNW (300°) 9.2mph 6°C 4°C
14/01/19 07:20 EGPK 140720Z 29006KT 9999 -RA FEW013 SCT028 06/05 Q1018 -RA WNW (290°) 6.9mph 6°C 5°C
14/01/19 06:50 EGPK 140650Z 30005KT 9999 -RA FEW012 SCT032 06/05 Q1018 -RA WNW (300°) 5.8mph 6°C 5°C
14/01/19 06:20 EGPK 140620Z 31006KT 9999 FEW012 SCT026 07/04 Q1018 NW (310°) 6.9mph 7°C 4°C
14/01/19 05:50 EGPK 140550Z 32008KT 9999 FEW010 SCT022 07/04 Q1018 NW (320°) 9.2mph 7°C 4°C
14/01/19 04:50 EGPK 140450Z 31004KT 9999 FEW012 SCT024 07/04 Q1018 NW (310°) 4.6mph 7°C 4°C
14/01/19 03:50 EGPK 140350Z 31013KT 9999 FEW012 SCT024 07/05 Q1017 NW (310°) 15.0mph 7°C 5°C
14/01/19 01:50 EGPK 140150Z 31009KT 260V360 9999 FEW012 SCT024 08/05 Q1016 NW (310°) 10.4mph 8°C 5°C
14/01/19 00:50 EGPK 140050Z 32009KT 9999 FEW012 SCT024 08/04 Q1015 NW (320°) 10.4mph 8°C 4°C
13/01/19 23:50 EGPK 132350Z 31008KT 9999 FEW012 SCT024 08/05 Q1014 NW (310°) 9.2mph 8°C 5°C
13/01/19 23:20 EGPK 132320Z 30013KT 9999 SCT012 SCT024 08/05 Q1013 WNW (300°) 15.0mph 8°C 5°C
13/01/19 22:50 EGPK 132250Z 30019KT 9999 SCT012 SCT024 08/05 Q1013 WNW (300°) 21.9mph 8°C 5°C
13/01/19 22:20 EGPK 132220Z 29022KT 9999 SCT012 SCT024 08/05 Q1012 WNW (290°) 25.3mph 8°C 5°C
13/01/19 21:50 EGPK 132150Z 29020KT 9999 SCT012 SCT024 08/05 Q1012 WNW (290°) 23.0mph 8°C 5°C
13/01/19 21:20 EGPK 132120Z 30014KT 9999 -RA SCT010 SCT035 08/06 Q1012 -RA WNW (300°) 16.1mph 8°C 6°C
13/01/19 20:20 EGPK 132020Z 30015KT 9999 SCT010 SCT035 08/05 Q1011 WNW (300°) 17.3mph 8°C 5°C
13/01/19 19:50 EGPK 131950Z 30019KT 9999 SCT010 SCT035 08/05 Q1011 WNW (300°) 21.9mph 8°C 5°C
13/01/19 19:20 EGPK 131920Z 30025G38KT 9999 -RA SCT010 SCT035 08/05 Q1010 -RA WNW (300°) 28.8mph 43.7mph 8°C 5°C
13/01/19 18:50 EGPK 131850Z 30027G37KT 9999 -RA FEW012 SCT035 08/05 Q1010 -RA WNW (300°) 31.1mph 42.6mph 8°C 5°C
13/01/19 18:20 EGPK 131820Z 29022KT 9999 FEW012 SCT030 08/05 Q1010 WNW (290°) 25.3mph 8°C 5°C
13/01/19 17:50 EGPK 131750Z 30026G38KT 9999 -RA FEW012 SCT030 08/05 Q1010 -RA WNW (300°) 29.9mph 43.7mph 8°C 5°C
13/01/19 17:20 EGPK 131720Z 30027G37KT 9999 FEW012 SCT030 08/04 Q1009 WNW (300°) 31.1mph 42.6mph 8°C 4°C
13/01/19 16:50 EGPK 131650Z 30026KT 9999 FEW012 SCT030 08/04 Q1009 WNW (300°) 29.9mph 8°C 4°C
13/01/19 16:20 EGPK 131620Z 30023KT 9999 FEW012 SCT030 08/05 Q1009 WNW (300°) 26.5mph 8°C 5°C
13/01/19 15:50 EGPK 131550Z 30027KT 9999 FEW012 SCT030 08/05 Q1009 WNW (300°) 31.1mph 8°C 5°C
13/01/19 15:20 EGPK 131520Z 30025KT 9999 FEW012 SCT030 08/05 Q1009 WNW (300°) 28.8mph 8°C 5°C
13/01/19 14:50 EGPK 131450Z 30025KT 9999 FEW012 SCT030 09/05 Q1008 WNW (300°) 28.8mph 9°C 5°C
13/01/19 14:20 EGPK 131420Z 29023KT 9999 FEW012 SCT030 09/05 Q1008 WNW (290°) 26.5mph 9°C 5°C
13/01/19 13:50 EGPK 131350Z 30023KT 9999 FEW012 SCT030 09/05 Q1008 WNW (300°) 26.5mph 9°C 5°C
13/01/19 12:50 EGPK 131250Z 30018KT 9999 -RA FEW012 SCT030 09/06 Q1009 -RA WNW (300°) 20.7mph 9°C 6°C
13/01/19 12:20 EGPK 131220Z 29023G33KT 9999 FEW012 SCT030 09/05 Q1008 WNW (290°) 26.5mph 38.0mph 9°C 5°C
13/01/19 11:50 EGPK 131150Z 29021G31KT 9999 SCT013 SCT030 09/05 Q1009 WNW (290°) 24.2mph 35.7mph 9°C 5°C
13/01/19 11:20 EGPK 131120Z 28024G36KT 9999 SCT013 SCT030 09/06 Q1009 W (280°) 27.6mph 41.4mph 9°C 6°C
13/01/19 10:50 EGPK 131050Z 29026KT 9999 SCT013 BKN030 09/06 Q1009 WNW (290°) 29.9mph 9°C 6°C
13/01/19 10:20 EGPK 131020Z 29025KT 9999 SCT013 BKN030 10/06 Q1008 WNW (290°) 28.8mph 10°C 6°C
13/01/19 09:20 EGPK 130920Z 28017KT 9999 SCT013 BKN030 10/07 Q1009 W (280°) 19.6mph 10°C 7°C
13/01/19 08:50 EGPK 130850Z 28019KT 9999 SCT013 BKN030 10/07 Q1010 W (280°) 21.9mph 10°C 7°C
13/01/19 08:20 EGPK 130820Z 29015KT 9999 SCT013 BKN030 10/07 Q1010 WNW (290°) 17.3mph 10°C 7°C
13/01/19 07:50 EGPK 130750Z 28014G26KT 8000 -RA FEW004 SCT012 BKN024 10/09 Q1010 -RA W (280°) 16.1mph 29.9mph 10°C 9°C
13/01/19 07:20 EGPK 130720Z 27014KT 8000 -RA FEW004 SCT012 BKN024 10/09 Q1010 -RA W (270°) 16.1mph 10°C 9°C
13/01/19 06:50 EGPK 130650Z 27018KT 9999 -RA FEW004 SCT012 BKN024 10/09 Q1009 -RA W (270°) 20.7mph 10°C 9°C
13/01/19 06:20 EGPK 130620Z 26015KT 9999 FEW004 SCT012 BKN024 10/09 Q1009 W (260°) 17.3mph 10°C 9°C
13/01/19 05:50 EGPK 130550Z 25014KT 9999 FEW004 SCT012 BKN024 09/09 Q1010 WSW (250°) 16.1mph 9°C 9°C
13/01/19 04:50 EGPK 130450Z 25013KT 7000 -RA FEW004 SCT009 BKN020 09/09 Q1011 -RA WSW (250°) 15.0mph 9°C 9°C
13/01/19 03:50 EGPK 130350Z 24014KT 7000 -RA FEW004 SCT012 BKN022 09/09 Q1012 -RA WSW (240°) 16.1mph 9°C 9°C
13/01/19 02:50 EGPK 130250Z 25018KT 9999 FEW005 SCT012 BKN026 09/09 Q1012 WSW (250°) 20.7mph 9°C 9°C
13/01/19 01:50 EGPK 130150Z 25020KT 9999 FEW005 SCT012 BKN026 09/09 Q1012 WSW (250°) 23.0mph 9°C 9°C
13/01/19 00:50 EGPK 130050Z 24015KT 9999 FEW005 SCT012 BKN026 10/09 Q1013 WSW (240°) 17.3mph 10°C 9°C
12/01/19 23:50 EGPK 122350Z 27022G32KT 9999 FEW005 SCT012 BKN026 10/09 Q1014 W (270°) 25.3mph 36.8mph 10°C 9°C
12/01/19 22:50 EGPK 122250Z 27013KT 9999 FEW005 SCT012 BKN026 10/09 Q1015 W (270°) 15.0mph 10°C 9°C
12/01/19 22:20 EGPK 122220Z 26019KT 9999 FEW005 SCT012 BKN026 10/08 Q1014 W (260°) 21.9mph 10°C 8°C
12/01/19 21:50 EGPK 122150Z 27021KT 8000 -RA FEW005 SCT012 BKN026 10/08 Q1014 -RA W (270°) 24.2mph 10°C 8°C
12/01/19 21:20 EGPK 122120Z 27025KT 8000 -RA FEW005 SCT010 BKN020 10/08 Q1015 -RA W (270°) 28.8mph 10°C 8°C
12/01/19 20:50 EGPK 122050Z 27024KT 8000 -RA FEW005 SCT010 BKN020 10/09 Q1015 -RA W (270°) 27.6mph 10°C 9°C
12/01/19 20:20 EGPK 122020Z 27021KT 8000 -RA FEW005 SCT010 BKN020 10/09 Q1015 -RA W (270°) 24.2mph 10°C 9°C
12/01/19 19:20 EGPK 121920Z 28015KT 8000 -RA SCT010 BKN020 10/09 Q1016 -RA W (280°) 17.3mph 10°C 9°C
12/01/19 18:20 EGPK 121820Z 26013KT 7000 SCT010 BKN020 10/09 Q1015 W (260°) 15.0mph 10°C 9°C
12/01/19 17:50 EGPK 121750Z 29016KT 6000 -RA SCT010 BKN020 10/09 Q1016 -RA WNW (290°) 18.4mph 10°C 9°C
12/01/19 17:20 EGPK 121720Z 30024KT 6000 -RA SCT010 BKN020 11/09 Q1015 -RA WNW (300°) 27.6mph 11°C 9°C
12/01/19 16:50 EGPK 121650Z 30023KT 6000 -RA SCT008 BKN020 11/09 Q1015 -RA WNW (300°) 26.5mph 11°C 9°C
12/01/19 16:20 EGPK 121620Z 30021KT 7000 -RA SCT008 BKN020 11/09 Q1015 -RA WNW (300°) 24.2mph 11°C 9°C
12/01/19 15:50 EGPK 121550Z 29020G30KT 8000 -RA SCT008 BKN020 11/09 Q1016 -RA WNW (290°) 23.0mph 34.5mph 11°C 9°C
12/01/19 14:50 EGPK 121450Z 27015KT 4000 -RA SCT008 BKN020 10/09 Q1016 -RA W (270°) 17.3mph 10°C 9°C
12/01/19 14:20 EGPK 121420Z 27016KT 4000 -RA SCT008 BKN020 10/09 Q1016 -RA W (270°) 18.4mph 10°C 9°C
12/01/19 13:50 EGPK 121350Z 26013KT 6000 -RA SCT008 BKN020 09/09 Q1016 -RA W (260°) 15.0mph 9°C 9°C
12/01/19 13:20 EGPK 121320Z 26012KT 6000 -RA SCT008 BKN020 09/09 Q1016 -RA W (260°) 13.8mph 9°C 9°C
12/01/19 12:20 EGPK 121220Z 26014KT 5000 -RA SCT008 BKN020 08/08 Q1017 -RA W (260°) 16.1mph 8°C 8°C
12/01/19 11:50 EGPK 121150Z 27020KT 5000 -RA SCT008 BKN020 09/07 Q1018 -RA W (270°) 23.0mph 9°C 7°C
12/01/19 11:20 EGPK 121120Z 27017KT 8000 SCT010 BKN020 09/07 Q1018 W (270°) 19.6mph 9°C 7°C
12/01/19 10:50 EGPK 121050Z 28017KT 8000 -RA SCT010 BKN020 09/07 Q1018 -RA W (280°) 19.6mph 9°C 7°C
12/01/19 09:50 EGPK 120950Z 28015KT 8000 SCT012 BKN020 09/06 Q1018 W (280°) 17.3mph 9°C 6°C
12/01/19 09:20 EGPK 120920Z 29020KT 8000 FEW008 SCT012 BKN020 09/06 Q1019 WNW (290°) 23.0mph 9°C 6°C
12/01/19 08:50 EGPK 120850Z 30019KT 8000 -RA FEW008 SCT012 BKN020 09/06 Q1019 -RA WNW (300°) 21.9mph 9°C 6°C
12/01/19 08:20 EGPK 120820Z 30019KT 9999 -RA FEW008 SCT012 BKN020 09/06 Q1019 -RA WNW (300°) 21.9mph 9°C 6°C
12/01/19 07:50 EGPK 120750Z 30019KT 9999 -RA FEW005 SCT010 BKN020 09/06 Q1019 -RA WNW (300°) 21.9mph 9°C 6°C